Terminal Aerodrome Forecast
Issued by NWS

Home | Current Version | Previous Version | Graphics & Text | Print | Product List | Glossary On
Versions: 1 2 3 4 5 6 7 8 9 10 11 12 13 14 15 16 17 18 19 20 21 22 23 24 25 26 27 28 29 30 31 32 33
000
FTUS43 KLOT 181900 AAA
TAFMDW
TAF AMD
KMDW 182000Z 1820/1918 27016G24KT P6SM SCT025 BKN035
     FM182300 24012KT P6SM -SHSN BKN035
     FM190200 21008KT P6SM BKN050 OVC080
     FM191000 17011KT 3SM -SN SCT015 BKN030
     FM191200 19011KT 1 1/2SM -SN BKN015
     FM191600 25014G20KT P6SM -SHSN BKN015=

USA.gov is the U.S. government's official web portal to all federal, state and local government web resources and services.